Time;durP1;ratioP1;P1;durP2;ratioP2;P2;SDS_P1;SDS_P2;PMS_P1;PMS_P2;Temp;Humidity;BMP_temperature;BMP_pressure;BME280_temperature;BME280_humidity;BME280_pressure;Samples;Min_cycle;Max_cycle;Signal;HPM_P1;HPM_P2
2022/06/07 00:00:36;;;;;;;25.25;16.15;;;14.60;99.90;;;;;;5037770;28;25153;-67
2022/06/07 00:03:11;;;;;;;22.40;15.68;;;14.50;99.90;;;;;;5039046;28;25073;-68
2022/06/07 00:05:43;;;;;;;25.00;15.77;;;14.50;99.90;;;;;;5038267;28;25061;-67
2022/06/07 00:08:09;;;;;;;;;;;14.40;99.90;;;;;;5040170;28;25122;-67
2022/06/07 00:10:35;;;;;;;25.95;16.75;;;14.20;99.90;;;;;;5043339;28;25073;-67
2022/06/07 00:13:01;;;;;;;25.95;15.93;;;14.30;99.90;;;;;;5036233;28;25150;-67
2022/06/07 00:15:26;;;;;;;25.33;15.82;;;14.20;99.90;;;;;;5040499;28;25062;-67
2022/06/07 00:17:52;;;;;;;28.15;17.23;;;14.20;99.90;;;;;;5041267;28;25087;-66
2022/06/07 00:20:18;;;;;;;27.10;16.65;;;14.30;99.90;;;;;;5047784;28;25062;-68
2022/06/07 00:22:44;;;;;;;26.58;16.83;;;14.30;99.90;;;;;;5046475;28;25083;-67
2022/06/07 00:25:12;;;;;;;25.00;16.70;;;14.20;99.90;;;;;;5038874;28;25073;-67
2022/06/07 00:27:37;;;;;;;29.33;18.15;;;14.20;99.90;;;;;;5040808;28;25085;-67
2022/06/07 00:30:05;;;;;;;22.67;15.70;;;14.20;99.90;;;;;;5038218;28;25077;-68
2022/06/07 00:32:31;;;;;;;29.58;17.75;;;14.40;99.90;;;;;;5038990;28;25054;-67
2022/06/07 00:35:00;;;;;;;25.52;16.98;;;14.30;99.90;;;;;;5043145;28;25136;-68
2022/06/07 00:37:26;;;;;;;28.58;19.75;;;14.40;99.90;;;;;;5044630;28;25059;-68
2022/06/07 00:39:51;;;;;;;35.92;19.38;;;14.50;99.90;;;;;;5041766;28;25142;-68
2022/06/07 00:42:17;;;;;;;30.17;20.13;;;14.40;99.90;;;;;;5039792;28;25057;-68
2022/06/07 00:44:45;;;;;;;33.97;20.73;;;14.50;99.90;;;;;;5037984;28;25096;-68
2022/06/07 00:47:14;;;;;;;34.80;21.30;;;14.60;99.90;;;;;;5043060;28;25101;-68
2022/06/07 00:49:53;;;;;;;32.67;21.45;;;14.50;99.90;;;;;;5038516;28;25092;-68
2022/06/07 00:52:21;;;;;;;34.80;21.10;;;14.50;99.90;;;;;;5046117;28;25093;-67
2022/06/07 00:54:47;;;;;;;32.67;21.25;;;14.60;99.90;;;;;;5030205;28;25071;-68
2022/06/07 00:57:13;;;;;;;31.73;18.80;;;14.70;99.90;;;;;;5045161;28;25121;-67
2022/06/07 00:59:39;;;;;;;38.83;22.85;;;14.70;99.90;;;;;;5031658;28;25057;-68
2022/06/07 01:02:05;;;;;;;40.85;24.13;;;14.70;99.90;;;;;;5046186;28;25091;-68
2022/06/07 01:04:31;;;;;;;35.83;22.13;;;14.70;99.90;;;;;;5041791;28;25114;-69
2022/06/07 01:12:27;;;;;;;36.97;24.02;;;14.70;99.90;;;;;;5037565;28;25153;-68
2022/06/07 01:14:53;;;;;;;40.75;26.40;;;14.70;99.90;;;;;;5043240;28;25072;-69
2022/06/07 01:17:19;;;;;;;37.60;24.38;;;14.80;99.90;;;;;;5045363;28;25125;-67
2022/06/07 01:19:45;;;;;;;40.80;24.55;;;14.70;99.90;;;;;;5045615;28;25054;-69
2022/06/07 01:22:12;;;;;;;42.75;26.42;;;14.70;99.90;;;;;;5041142;28;25069;-69
2022/06/07 01:24:38;;;;;;;43.17;27.65;;;14.50;99.90;;;;;;5037569;28;25146;-68
2022/06/07 01:27:04;;;;;;;44.35;26.33;;;14.60;99.90;;;;;;5043450;28;25082;-69
2022/06/07 01:29:30;;;;;;;53.17;29.35;;;14.50;99.90;;;;;;5043408;28;25058;-70
2022/06/07 01:31:55;;;;;;;48.53;27.80;;;14.60;99.90;;;;;;5033931;28;25064;-69
2022/06/07 01:34:21;;;;;;;49.38;26.88;;;14.50;99.90;;;;;;5041288;28;25134;-69
2022/06/07 01:36:47;;;;;;;52.65;28.85;;;14.60;99.90;;;;;;5038562;28;25064;-69
2022/06/07 01:41:57;;;;;;;37.72;24.75;;;14.50;99.90;;;;;;5055029;28;25053;-69
2022/06/07 01:44:25;;;;;;;37.20;22.67;;;14.50;99.90;;;;;;5063007;28;25078;-70
2022/06/07 01:46:53;;;;;;;35.58;23.50;;;14.50;99.90;;;;;;5058458;28;25077;-70
2022/06/07 01:49:19;;;;;;;35.47;23.55;;;14.40;99.90;;;;;;5055959;28;25071;-69
2022/06/07 01:51:45;;;;;;;29.00;21.70;;;14.40;99.90;;;;;;5054755;28;25058;-69
2022/06/07 01:54:12;;;;;;;34.35;22.92;;;14.40;99.90;;;;;;5048998;28;25112;-71
2022/06/07 01:56:38;;;;;;;33.25;23.00;;;14.60;99.90;;;;;;5049655;28;25095;-68
2022/06/07 01:59:04;;;;;;;34.17;23.27;;;14.40;99.90;;;;;;5067382;28;25053;-67
2022/06/07 02:01:30;;;;;;;30.20;21.35;;;14.50;99.90;;;;;;5061791;28;25063;-68
2022/06/07 02:03:56;;;;;;;30.33;20.25;;;14.40;99.90;;;;;;5039921;28;25109;-67
2022/06/07 02:06:22;;;;;;;31.02;20.52;;;14.30;99.90;;;;;;5046218;28;25090;-67
2022/06/07 02:08:48;;;;;;;28.77;19.45;;;14.20;99.90;;;;;;5060954;28;25120;-67
2022/06/07 02:11:18;;;;;;;29.33;21.45;;;14.20;99.90;;;;;;5042269;28;25067;-68
2022/06/07 02:13:46;;;;;;;30.30;20.25;;;14.00;99.90;;;;;;5035022;28;25071;-69
2022/06/07 02:16:13;;;;;;;29.17;20.77;;;14.30;99.90;;;;;;5048603;28;25102;-69
2022/06/07 02:18:38;;;;;;;33.80;19.63;;;14.30;99.90;;;;;;5045454;28;25091;-69
2022/06/07 02:21:06;;;;;;;31.58;20.63;;;14.20;99.90;;;;;;5048937;28;25073;-69
2022/06/07 02:23:34;;;;;;;31.30;19.10;;;14.20;99.90;;;;;;5036841;28;25166;-68
2022/06/07 02:26:03;;;;;;;29.65;20.42;;;14.10;99.90;;;;;;5046745;28;25043;-68
2022/06/07 02:28:34;;;;;;;33.67;19.83;;;14.20;99.90;;;;;;5046789;28;25116;-69
2022/06/07 02:31:00;;;;;;;33.47;19.85;;;14.10;99.90;;;;;;5040250;28;25068;-71
2022/06/07 02:33:27;;;;;;;34.90;21.80;;;14.20;99.90;;;;;;5043535;28;25094;-69
2022/06/07 02:35:53;;;;;;;31.58;20.13;;;14.20;99.90;;;;;;5042320;28;25144;-69
2022/06/07 02:38:19;;;;;;;30.02;19.55;;;14.10;99.90;;;;;;5035760;28;25108;-69
2022/06/07 02:40:48;;;;;;;34.95;21.40;;;14.10;99.90;;;;;;5048736;28;25112;-69
2022/06/07 02:43:13;;;;;;;37.60;21.85;;;14.10;99.90;;;;;;5044535;28;25066;-69
2022/06/07 02:45:39;;;;;;;32.38;22.27;;;14.10;99.90;;;;;;5048181;28;25069;-68
2022/06/07 02:48:06;;;;;;;32.17;20.65;;;14.20;99.90;;;;;;5046661;28;25066;-69
2022/06/07 02:50:32;;;;;;;33.90;22.38;;;14.20;99.90;;;;;;5040507;28;25097;-69
2022/06/07 02:52:57;;;;;;;37.80;21.98;;;14.20;99.90;;;;;;5035979;28;25094;-69
2022/06/07 02:55:24;;;;;;;37.92;23.40;;;14.00;99.90;;;;;;5043700;28;25060;-69
2022/06/07 02:57:50;;;;;;;36.72;22.73;;;14.10;99.90;;;;;;5038214;28;25107;-71
2022/06/07 03:00:17;;;;;;;34.70;23.33;;;14.20;99.90;;;;;;5039075;28;25111;-68
2022/06/07 03:02:43;;;;;;;33.03;21.05;;;14.10;99.90;;;;;;5034805;28;25074;-69
2022/06/07 03:05:12;;;;;;;39.83;22.95;;;14.10;99.90;;;;;;5034908;28;25132;-71
2022/06/07 03:07:41;;;;;;;35.00;24.40;;;14.20;99.90;;;;;;5044804;28;25062;-70
2022/06/07 03:10:09;;;;;;;37.05;23.10;;;14.10;99.90;;;;;;5041427;28;25079;-70
2022/06/07 03:12:36;;;;;;;30.10;21.17;;;14.10;99.90;;;;;;5032976;28;25072;-69
2022/06/07 03:15:02;;;;;;;41.88;23.80;;;14.10;99.90;;;;;;5047559;28;25070;-69
2022/06/07 03:17:27;;;;;;;34.22;23.10;;;14.10;99.90;;;;;;5035821;28;25119;-71
2022/06/07 03:19:53;;;;;;;37.88;23.20;;;14.10;99.90;;;;;;5037930;28;25061;-68
2022/06/07 03:22:19;;;;;;;42.92;26.20;;;14.10;99.90;;;;;;5039978;28;25063;-69
2022/06/07 03:24:45;;;;;;;33.70;25.15;;;14.10;99.90;;;;;;5037909;28;25073;-70
2022/06/07 03:27:13;;;;;;;42.47;25.52;;;14.00;99.90;;;;;;5037654;28;25053;-69
2022/06/07 03:29:39;;;;;;;46.22;26.25;;;13.90;99.90;;;;;;5038637;28;25094;-71
2022/06/07 03:32:06;;;;;;;36.63;22.95;;;14.10;99.90;;;;;;5039071;28;25073;-71
2022/06/07 03:34:33;;;;;;;35.47;24.65;;;14.10;99.90;;;;;;5038209;28;25049;-70
2022/06/07 03:36:59;;;;;;;36.33;24.00;;;14.10;99.90;;;;;;5047712;28;25080;-70
2022/06/07 03:39:25;;;;;;;40.70;27.05;;;14.10;99.90;;;;;;5031447;28;25057;-69
2022/06/07 03:41:51;;;;;;;41.53;25.48;;;14.10;99.90;;;;;;5033524;28;25066;-70
2022/06/07 03:44:17;;;;;;;40.80;28.38;;;14.00;99.90;;;;;;5038360;28;25140;-69
2022/06/07 03:46:44;;;;;;;39.63;26.30;;;14.00;99.90;;;;;;5045060;28;25134;-70
2022/06/07 03:49:09;;;;;;;55.42;31.70;;;14.00;99.90;;;;;;5042888;28;25083;-70
2022/06/07 03:51:38;;;;;;;45.30;30.00;;;14.00;99.90;;;;;;5041822;28;25084;-69
2022/06/07 03:54:04;;;;;;;49.90;30.15;;;14.10;99.90;;;;;;5042487;28;25332;-69
2022/06/07 03:56:31;;;;;;;44.88;30.35;;;14.10;99.90;;;;;;5034928;28;25125;-69
2022/06/07 03:58:57;;;;;;;44.95;30.05;;;14.10;99.90;;;;;;5052240;28;25065;-70
2022/06/07 04:01:24;;;;;;;43.67;26.75;;;14.10;99.90;;;;;;5040808;28;25067;-69
2022/06/07 04:03:51;;;;;;;43.40;27.88;;;14.20;99.90;;;;;;5038522;28;25094;-68
2022/06/07 04:06:27;;;;;;;44.13;28.70;;;14.20;99.90;;;;;;5043760;28;25066;-69
2022/06/07 04:08:54;;;;;;;41.53;27.98;;;14.20;99.90;;;;;;5042630;28;25071;-68
2022/06/07 04:11:22;;;;;;;43.15;29.45;;;14.10;99.90;;;;;;5047147;28;25089;-68
2022/06/07 04:13:49;;;;;;;47.92;28.90;;;14.20;99.90;;;;;;5035113;28;25062;-68
2022/06/07 04:16:17;;;;;;;42.67;28.83;;;14.30;99.90;;;;;;5036257;28;25067;-68
2022/06/07 04:18:43;;;;;;;40.08;25.60;;;14.20;99.90;;;;;;5041199;28;25060;-69
2022/06/07 04:21:10;;;;;;;37.33;26.33;;;14.20;99.90;;;;;;5043543;28;25062;-68
2022/06/07 04:23:36;;;;;;;39.85;24.88;;;14.20;99.90;;;;;;5046028;28;25088;-67
2022/06/07 04:26:23;;;;;;;43.20;28.25;;;14.20;99.90;;;;;;5043433;28;25093;-69
2022/06/07 04:28:49;;;;;;;42.03;27.60;;;14.30;99.90;;;;;;5043119;28;25166;-68
2022/06/07 04:31:18;;;;;;;41.13;26.38;;;14.30;99.90;;;;;;5037679;28;25089;-68
2022/06/07 04:33:44;;;;;;;40.22;23.52;;;14.30;99.90;;;;;;5035536;28;25056;-68
2022/06/07 04:36:15;;;;;;;39.38;27.35;;;14.30;99.90;;;;;;5043924;28;25086;-67
2022/06/07 04:38:41;;;;;;;43.70;24.05;;;14.30;99.90;;;;;;5046503;28;25080;-67
2022/06/07 04:41:13;;;;;;;34.03;23.67;;;14.30;99.90;;;;;;5046155;28;25163;-67
2022/06/07 04:43:39;;;;;;;40.50;25.75;;;14.20;99.90;;;;;;5044336;28;25080;-67
2022/06/07 04:46:08;;;;;;;40.28;26.40;;;14.30;99.90;;;;;;5043775;28;25058;-67
2022/06/07 04:48:34;;;;;;;36.72;25.13;;;14.30;99.90;;;;;;5046853;28;25090;-67
2022/06/07 04:51:30;;;;;;;34.10;23.15;;;14.30;99.90;;;;;;5041625;28;25149;-68
2022/06/07 04:53:58;;;;;;;34.47;23.27;;;14.40;99.90;;;;;;5042338;28;25110;-69
2022/06/07 04:56:32;;;;;;;36.80;24.55;;;14.40;99.90;;;;;;5038282;28;25116;-68
2022/06/07 04:58:59;;;;;;;33.15;24.13;;;14.30;99.90;;;;;;5032138;28;25108;-68
2022/06/07 05:01:27;;;;;;;36.95;23.15;;;14.30;99.90;;;;;;5039075;28;25147;-68
2022/06/07 05:03:54;;;;;;;32.78;21.08;;;14.30;99.90;;;;;;5042746;28;25064;-68
2022/06/07 05:06:47;;;;;;;34.63;21.20;;;14.40;99.90;;;;;;5041043;28;25081;-66
2022/06/07 05:09:20;;;;;;;36.35;23.92;;;14.30;99.90;;;;;;5038978;28;25145;-68
2022/06/07 05:11:51;;;;;;;34.22;24.15;;;14.40;99.90;;;;;;5039853;28;25076;-68
2022/06/07 05:14:18;;;;;;;35.53;25.27;;;14.40;99.90;;;;;;5042932;28;25142;-68
2022/06/07 05:16:44;;;;;;;33.33;24.10;;;14.50;99.90;;;;;;5049031;28;25063;-67
2022/06/07 05:19:11;;;;;;;30.48;22.10;;;14.50;99.90;;;;;;5039127;28;25064;-66
2022/06/07 05:21:38;;;;;;;36.00;25.20;;;14.50;99.90;;;;;;5039673;28;25157;-67
2022/06/07 05:24:04;;;;;;;35.05;25.02;;;14.50;99.90;;;;;;5047653;28;25138;-68
2022/06/07 05:26:46;;;;;;;34.33;23.33;;;14.50;99.90;;;;;;5051510;28;25070;-68
2022/06/07 05:29:21;;;;;;;30.90;23.83;;;14.50;99.90;;;;;;5048778;28;25098;-68
2022/06/07 05:31:47;;;;;;;35.38;23.80;;;14.50;99.90;;;;;;5037825;28;25135;-68
2022/06/07 05:34:13;;;;;;;34.53;24.23;;;14.60;99.90;;;;;;5048626;28;25103;-68
2022/06/07 05:36:39;;;;;;;35.42;23.80;;;14.60;99.90;;;;;;5048667;28;25109;-68
2022/06/07 05:39:06;;;;;;;33.28;24.38;;;14.60;99.90;;;;;;5037283;28;25105;-69
2022/06/07 05:41:32;;;;;;;29.25;21.83;;;14.60;99.90;;;;;;5051149;28;25071;-68
2022/06/07 05:43:58;;;;;;;27.15;20.27;;;14.70;99.90;;;;;;5045591;28;25066;-68
2022/06/07 05:46:24;;;;;;;29.95;21.08;;;14.70;99.90;;;;;;5047124;28;25065;-68
2022/06/07 05:48:50;;;;;;;27.23;19.92;;;14.70;99.90;;;;;;5048485;28;25073;-69
2022/06/07 05:51:16;;;;;;;21.20;17.38;;;14.60;99.90;;;;;;5042755;28;25088;-71
2022/06/07 05:53:41;;;;;;;23.65;18.90;;;14.60;99.90;;;;;;5044680;28;25077;-70
2022/06/07 05:56:10;;;;;;;21.13;17.05;;;14.60;99.90;;;;;;5046896;28;25061;-68
2022/06/07 05:58:36;;;;;;;19.63;15.90;;;14.60;99.90;;;;;;5043277;28;25118;-68
2022/06/07 06:01:02;;;;;;;18.73;14.40;;;14.50;99.90;;;;;;5042987;28;25079;-69
2022/06/07 06:03:28;;;;;;;19.27;14.93;;;14.60;99.90;;;;;;5036362;28;25053;-68
2022/06/07 06:05:54;;;;;;;19.45;17.02;;;14.80;99.90;;;;;;5038442;28;25134;-69
2022/06/07 06:11:10;;;;;;;19.63;16.02;;;14.70;99.90;;;;;;5046459;28;25112;-69
2022/06/07 06:13:36;;;;;;;17.23;14.80;;;14.80;99.90;;;;;;5043674;28;25154;-68
2022/06/07 06:16:14;;;;;;;17.00;13.43;;;14.90;99.90;;;;;;5044617;28;25127;-68
2022/06/07 06:18:41;;;;;;;17.80;14.55;;;14.90;99.90;;;;;;5041744;28;25110;-68
2022/06/07 06:21:08;;;;;;;18.23;14.52;;;14.90;99.90;;;;;;5039363;28;25068;-67
2022/06/07 06:23:34;;;;;;;15.52;12.80;;;15.00;99.90;;;;;;5046738;28;25091;-68
2022/06/07 06:25:59;;;;;;;16.13;13.15;;;15.00;99.90;;;;;;5045924;28;25097;-69
2022/06/07 06:28:25;;;;;;;17.42;13.63;;;15.10;99.90;;;;;;5046113;28;25161;-69
2022/06/07 06:30:53;;;;;;;18.40;12.82;;;15.10;99.90;;;;;;5045837;28;25095;-68
2022/06/07 06:33:19;;;;;;;16.08;12.30;;;15.20;99.90;;;;;;5046269;28;25119;-69
2022/06/07 06:35:51;;;;;;;16.30;11.80;;;15.10;99.90;;;;;;5045707;28;25208;-69
2022/06/07 06:38:17;;;;;;;17.17;12.05;;;15.10;99.90;;;;;;5040246;28;25087;-68
2022/06/07 06:40:45;;;;;;;15.77;12.77;;;15.10;99.90;;;;;;5044511;28;25066;-68
2022/06/07 06:43:12;;;;;;;16.30;10.90;;;15.30;99.90;;;;;;5041480;28;25098;-69
2022/06/07 06:45:38;;;;;;;14.27;11.55;;;15.30;99.90;;;;;;5047776;28;25069;-69
2022/06/07 06:48:09;;;;;;;15.15;10.63;;;15.40;99.90;;;;;;5041381;28;25071;-68
2022/06/07 06:50:35;;;;;;;15.57;10.70;;;15.30;99.90;;;;;;5037288;28;25061;-65
2022/06/07 06:53:01;;;;;;;12.88;9.98;;;15.50;99.90;;;;;;5037619;28;25060;-68
2022/06/07 06:55:26;;;;;;;12.38;10.38;;;15.70;99.90;;;;;;5040482;28;25112;-69
2022/06/07 06:57:52;;;;;;;14.10;9.55;;;15.90;99.90;;;;;;5034257;28;25061;-67
2022/06/07 07:00:18;;;;;;;12.65;10.43;;;15.90;99.90;;;;;;5039995;28;25053;-68
2022/06/07 07:02:45;;;;;;;12.65;9.88;;;15.90;99.90;;;;;;5042220;28;25125;-68
2022/06/07 07:05:13;;;;;;;14.43;9.43;;;15.90;99.90;;;;;;5039023;28;25070;-67
2022/06/07 07:07:39;;;;;;;12.25;9.70;;;15.90;99.90;;;;;;5032551;28;25062;-68
2022/06/07 07:10:06;;;;;;;11.57;10.05;;;16.00;99.90;;;;;;5046909;28;25064;-66
2022/06/07 07:12:33;;;;;;;14.20;11.70;;;15.90;99.90;;;;;;5037316;28;25052;-67
2022/06/07 07:14:59;;;;;;;16.13;12.90;;;15.80;99.90;;;;;;5040693;28;25074;-67
2022/06/07 07:17:25;;;;;;;15.68;12.70;;;15.80;99.90;;;;;;5046772;28;25075;-67
2022/06/07 07:19:51;;;;;;;14.35;11.85;;;15.80;99.90;;;;;;5039866;28;25094;-70
2022/06/07 07:22:18;;;;;;;14.93;12.50;;;15.80;99.90;;;;;;5039655;28;25106;-70
2022/06/07 07:24:44;;;;;;;20.15;14.27;;;15.80;99.90;;;;;;5051619;28;25071;-69
2022/06/07 07:27:10;;;;;;;18.98;15.07;;;15.80;99.90;;;;;;5035713;28;25062;-68
2022/06/07 07:29:37;;;;;;;18.65;13.68;;;15.70;99.90;;;;;;5051295;28;25066;-70
2022/06/07 07:32:03;;;;;;;20.60;15.18;;;15.80;99.90;;;;;;5038334;28;25185;-70
2022/06/07 07:34:29;;;;;;;17.00;13.88;;;16.00;99.90;;;;;;5046157;28;25085;-70
2022/06/07 07:36:55;;;;;;;17.92;14.60;;;16.20;99.90;;;;;;5044536;28;25099;-70
2022/06/07 07:39:25;;;;;;;15.93;13.50;;;16.30;99.90;;;;;;5042629;28;25119;-67
2022/06/07 07:41:52;;;;;;;16.75;13.60;;;16.00;99.90;;;;;;5035842;28;25062;-68
2022/06/07 07:44:18;;;;;;;22.38;14.50;;;16.00;99.90;;;;;;5035351;28;25061;-70
2022/06/07 07:46:45;;;;;;;20.30;15.90;;;16.10;99.90;;;;;;5033331;28;25110;-68
2022/06/07 07:49:16;;;;;;;17.83;15.43;;;16.00;99.90;;;;;;5051331;28;25091;-68
2022/06/07 07:51:45;;;;;;;17.80;14.00;;;16.10;99.90;;;;;;5049293;28;25089;-69
2022/06/07 07:54:13;;;;;;;18.42;13.82;;;16.40;99.90;;;;;;5051978;28;25076;-67
2022/06/07 07:56:39;;;;;;;14.63;12.10;;;16.60;99.90;;;;;;5049413;28;25154;-68
2022/06/07 07:59:07;;;;;;;16.67;11.73;;;16.50;99.90;;;;;;5040705;28;25145;-69
2022/06/07 08:01:33;;;;;;;11.68;10.48;;;16.50;99.90;;;;;;5039401;28;25091;-66
2022/06/07 08:04:00;;;;;;;15.80;10.98;;;16.90;99.90;;;;;;5056962;28;25059;-67
2022/06/07 08:06:29;;;;;;;15.50;11.30;;;17.10;99.90;;;;;;5056920;28;25072;-69
2022/06/07 08:08:57;;;;;;;13.93;11.65;;;17.20;99.90;;;;;;5045902;28;25119;-66
2022/06/07 08:11:26;;;;;;;16.08;11.65;;;17.10;99.90;;;;;;5043213;28;25053;-66
2022/06/07 08:13:52;;;;;;;12.52;11.27;;;17.20;99.90;;;;;;5035426;28;25135;-71
2022/06/07 08:16:18;;;;;;;14.35;11.50;;;17.20;99.90;;;;;;5036241;28;25057;-68
2022/06/07 08:18:44;;;;;;;15.05;10.68;;;17.20;99.90;;;;;;5041843;28;25071;-68
2022/06/07 08:21:14;;;;;;;14.82;11.00;;;17.40;99.90;;;;;;5042393;28;25065;-69
2022/06/07 08:23:40;;;;;;;15.38;11.50;;;17.60;99.90;;;;;;5040323;28;25140;-69
2022/06/07 08:26:08;;;;;;;13.82;11.40;;;17.60;99.90;;;;;;5028484;28;25139;-70
2022/06/07 08:28:35;;;;;;;12.63;11.23;;;17.80;99.90;;;;;;5033163;28;25113;-71
2022/06/07 08:31:01;;;;;;;16.15;12.35;;;18.10;99.90;;;;;;5031816;28;25123;-70
2022/06/07 08:39:00;;;;;;;14.35;12.18;;;17.50;99.90;;;;;;5030944;28;25145;-68
2022/06/07 08:41:59;;;;;;;13.55;11.15;;;17.60;99.90;;;;;;5044745;28;25117;-67
2022/06/07 08:44:41;;;;;;;14.02;11.73;;;17.70;99.90;;;;;;5043211;28;25143;-70
2022/06/07 08:47:24;;;;;;;14.82;11.05;;;17.60;99.90;;;;;;5046711;28;25072;-69
2022/06/07 08:49:52;;;;;;;14.05;11.05;;;17.60;99.90;;;;;;5049572;28;25133;-70
2022/06/07 08:52:34;;;;;;;18.27;11.65;;;17.50;99.90;;;;;;5046024;28;25085;-70
2022/06/07 08:55:01;;;;;;;18.52;13.43;;;17.40;99.90;;;;;;5045488;28;25050;-71
2022/06/07 08:57:36;;;;;;;16.23;12.55;;;17.10;99.90;;;;;;5039233;28;25105;-71
2022/06/07 09:00:15;;;;;;;15.80;12.25;;;16.90;99.90;;;;;;5047297;28;25061;-70
2022/06/07 09:03:18;;;;;;;17.25;13.20;;;17.00;99.90;;;;;;5048335;28;25086;-70
2022/06/07 09:05:43;;;;;;;17.20;13.27;;;16.90;99.90;;;;;;5038709;28;25078;-68
2022/06/07 09:08:13;;;;;;;14.13;12.45;;;17.00;99.90;;;;;;5049078;28;25081;-68
2022/06/07 09:13:24;;;;;;;17.58;12.20;;;17.10;99.90;;;;;;5042901;28;25151;-70
2022/06/07 09:15:56;;;;;;;17.67;12.68;;;16.90;99.90;;;;;;5044026;28;25087;-69
2022/06/07 09:18:26;;;;;;;16.52;13.00;;;16.80;99.90;;;;;;5045699;28;25096;-70
2022/06/07 09:21:13;;;;;;;14.48;12.77;;;16.80;99.90;;;;;;5044227;28;25081;-70
2022/06/07 09:23:47;;;;;;;15.13;12.73;;;16.80;99.90;;;;;;5037253;28;25096;-70
2022/06/07 09:26:21;;;;;;;18.48;12.80;;;17.00;99.90;;;;;;5038220;28;25056;-69
2022/06/07 09:28:48;;;;;;;17.20;11.95;;;17.20;99.90;;;;;;5051319;28;25119;-67
2022/06/07 09:31:17;;;;;;;13.30;11.93;;;17.30;99.90;;;;;;5043003;28;25112;-69
2022/06/07 09:33:56;;;;;;;14.70;12.10;;;17.20;99.90;;;;;;5040017;28;25129;-68
2022/06/07 09:36:35;;;;;;;16.63;13.23;;;17.00;99.90;;;;;;5031297;28;25097;-67
2022/06/07 09:39:29;;;;;;;17.65;13.63;;;17.00;99.90;;;;;;5037829;28;25073;-68
2022/06/07 09:42:11;;;;;;;38.08;22.85;;;17.10;99.90;;;;;;5033492;28;25118;-68
2022/06/07 09:44:39;;;;;;;26.85;22.45;;;17.20;99.90;;;;;;5042380;28;25068;-68
2022/06/07 09:47:05;;;;;;;34.00;22.92;;;17.20;99.90;;;;;;5042292;28;25095;-68
2022/06/07 09:49:43;;;;;;;31.80;23.52;;;17.20;99.90;;;;;;5049540;28;25086;-68
2022/06/07 09:52:28;;;;;;;42.78;24.35;;;17.10;99.90;;;;;;5047042;28;25067;-68
2022/06/07 09:55:18;;;;;;;27.25;22.23;;;17.20;99.90;;;;;;5045037;28;25058;-70
2022/06/07 09:57:56;;;;;;;28.42;21.88;;;17.30;99.90;;;;;;5037682;28;25256;-68
2022/06/07 10:00:48;;;;;;;25.35;21.70;;;17.40;99.90;;;;;;5041603;28;25075;-69
2022/06/07 10:03:44;;;;;;;26.15;19.60;;;17.60;99.90;;;;;;5049264;28;25131;-68
2022/06/07 10:06:29;;;;;;;28.02;19.70;;;17.60;99.90;;;;;;5045060;28;25068;-69
2022/06/07 10:09:19;;;;;;;25.27;18.95;;;17.20;99.90;;;;;;5046633;28;25047;-68
2022/06/07 10:11:58;;;;;;;22.95;17.02;;;17.40;99.90;;;;;;5044784;28;25103;-69
2022/06/07 10:14:45;;;;;;;23.95;16.70;;;18.00;99.90;;;;;;5044552;28;25059;-68
2022/06/07 10:17:36;;;;;;;26.70;16.00;;;18.10;99.90;;;;;;5047053;28;25073;-68
2022/06/07 10:20:20;;;;;;;18.40;16.15;;;17.70;99.90;;;;;;5043387;28;25078;-69
2022/06/07 10:22:49;;;;;;;21.23;15.55;;;17.50;99.90;;;;;;5039422;28;25060;-68
2022/06/07 10:25:17;;;;;;;22.52;15.25;;;17.70;99.90;;;;;;5042669;28;25066;-68
2022/06/07 10:28:10;;;;;;;18.90;14.20;;;17.70;99.90;;;;;;5046371;28;25114;-69
2022/06/07 10:31:09;;;;;;;18.25;13.68;;;17.80;99.90;;;;;;5039752;28;25145;-67
2022/06/07 10:34:01;;;;;;;15.65;13.20;;;17.90;99.90;;;;;;5031022;28;25144;-69
2022/06/07 10:36:46;;;;;;;18.00;13.38;;;17.80;99.90;;;;;;5038632;28;25132;-67
2022/06/07 10:39:30;;;;;;;17.88;12.43;;;18.20;99.90;;;;;;5036786;28;25161;-67
2022/06/07 10:42:29;;;;;;;19.05;14.07;;;18.50;99.90;;;;;;5031465;28;25083;-68
2022/06/07 10:44:59;;;;;;;16.15;11.98;;;18.70;99.90;;;;;;5028266;28;25092;-69
2022/06/07 10:47:38;;;;;;;15.57;12.27;;;19.10;99.90;;;;;;5043221;28;25068;-70
2022/06/07 10:50:19;;;;;;;14.65;12.63;;;19.00;99.90;;;;;;5036185;28;25143;-68
2022/06/07 10:53:12;;;;;;;16.65;12.27;;;19.10;99.90;;;;;;5045806;28;25074;-65
2022/06/07 10:55:51;;;;;;;16.05;12.52;;;18.90;99.90;;;;;;5039449;28;25054;-68
2022/06/07 10:58:30;;;;;;;15.70;12.40;;;19.00;99.90;;;;;;5033635;28;25089;-68
2022/06/07 11:01:29;;;;;;;16.17;11.93;;;19.10;99.90;;;;;;5034340;28;25059;-67
2022/06/07 11:10:24;;;;;;;16.58;11.15;;;19.10;99.90;;;;;;5042965;28;25105;-66
2022/06/07 11:13:20;;;;;;;16.38;12.23;;;18.90;99.90;;;;;;5043636;28;25103;-67
2022/06/07 11:16:03;;;;;;;19.08;12.18;;;18.80;99.90;;;;;;5035361;28;25053;-68
2022/06/07 11:18:29;;;;;;;17.38;11.50;;;18.60;99.90;;;;;;5032119;28;25065;-68
2022/06/07 11:21:01;;;;;;;15.52;11.63;;;18.40;99.90;;;;;;5041227;28;25057;-67
2022/06/07 11:23:44;;;;;;;14.02;12.20;;;18.50;99.90;;;;;;5051719;28;25069;-68
2022/06/07 11:26:17;;;;;;;17.25;12.52;;;18.60;99.90;;;;;;5053178;28;25044;-70
2022/06/07 11:28:53;;;;;;;18.90;12.73;;;18.60;99.90;;;;;;5041286;28;25161;-67
2022/06/07 11:31:27;;;;;;;20.08;13.05;;;18.60;99.90;;;;;;5041094;28;25124;-69
2022/06/07 11:33:53;;;;;;;16.27;12.30;;;18.50;99.90;;;;;;5036525;28;25079;-67
2022/06/07 11:36:24;;;;;;;17.95;13.60;;;18.50;99.90;;;;;;5044332;28;25117;-68
2022/06/07 11:38:58;;;;;;;16.80;13.37;;;18.30;99.90;;;;;;5027383;28;25127;-69
2022/06/07 11:41:38;;;;;;;19.50;13.13;;;18.10;99.90;;;;;;5040778;28;25199;-68
2022/06/07 11:44:10;;;;;;;17.73;12.57;;;18.20;99.90;;;;;;5033863;28;25055;-69
2022/06/07 11:46:36;;;;;;;14.68;12.07;;;18.10;99.90;;;;;;5043157;28;25065;-69
2022/06/07 11:49:23;;;;;;;13.23;11.82;;;18.60;99.90;;;;;;5038350;28;25045;-71
2022/06/07 11:52:13;;;;;;;21.92;13.02;;;18.50;99.90;;;;;;5002884;28;25069;-69
2022/06/07 11:54:53;;;;;;;13.27;11.50;;;18.40;99.90;;;;;;5041800;28;25084;-70
2022/06/07 11:57:26;;;;;;;14.68;12.65;;;19.20;99.90;;;;;;5038322;28;25143;-69
2022/06/07 12:00:34;;;;;;;11.95;10.73;;;19.90;99.90;;;;;;5042674;28;25068;-67
2022/06/07 12:03:00;;;;;;;12.80;9.48;;;20.10;99.90;;;;;;5003206;28;25106;-67
2022/06/07 12:05:28;;;;;;;14.50;9.95;;;20.60;99.90;;;;;;5029392;28;25063;-68
2022/06/07 12:08:15;;;;;;;12.00;8.85;;;20.90;99.90;;;;;;5037290;28;25142;-69
2022/06/07 12:10:59;;;;;;;10.82;8.95;;;20.80;99.90;;;;;;5037501;28;25066;-68
2022/06/07 12:16:34;;;;;;;13.70;8.85;;;21.10;99.90;;;;;;5045083;28;25074;-67
2022/06/07 12:19:03;;;;;;;15.65;9.60;;;21.40;99.90;;;;;;5039266;28;25074;-69
2022/06/07 12:21:39;;;;;;;15.52;10.75;;;20.90;99.90;;;;;;5046310;28;25142;-64
2022/06/07 12:24:12;;;;;;;13.48;10.73;;;20.10;99.90;;;;;;5043447;28;25087;-70
2022/06/07 12:26:37;;;;;;;15.55;10.38;;;20.00;99.90;;;;;;5040085;28;25072;-67
2022/06/07 12:29:16;;;;;;;11.48;7.78;;;20.10;99.90;;;;;;5042312;28;25054;-68
2022/06/07 12:31:52;;;;;;;8.73;7.10;;;20.70;99.90;;;;;;5047529;28;25120;-67
2022/06/07 12:34:23;;;;;;;13.70;7.57;;;21.40;99.90;;;;;;5048080;28;25042;-67
2022/06/07 12:37:03;;;;;;;13.57;7.97;;;21.00;99.90;;;;;;5045993;28;25085;-68
2022/06/07 12:39:30;;;;;;;10.02;8.20;;;20.30;99.90;;;;;;5053292;28;25125;-66
2022/06/07 12:42:03;;;;;;;10.15;8.50;;;19.90;99.90;;;;;;5050164;28;25104;-68
2022/06/07 12:44:32;;;;;;;13.57;8.48;;;19.90;99.90;;;;;;5046169;28;25081;-66
2022/06/07 12:47:01;;;;;;;15.07;9.23;;;20.00;99.90;;;;;;5054875;28;25164;-69
2022/06/07 12:49:42;;;;;;;14.60;10.15;;;20.30;99.90;;;;;;5051974;28;25094;-68
2022/06/07 12:52:14;;;;;;;9.10;8.10;;;20.50;99.90;;;;;;5057266;28;25067;-67
2022/06/07 12:54:46;;;;;;;12.20;9.50;;;20.60;99.90;;;;;;5054479;28;25115;-68
2022/06/07 12:57:19;;;;;;;14.52;9.10;;;20.40;99.90;;;;;;5062666;28;25069;-67
2022/06/07 13:00:03;;;;;;;11.93;8.68;;;19.80;99.90;;;;;;5062659;28;25165;-72
2022/06/07 13:02:44;;;;;;;10.43;7.70;;;19.50;99.90;;;;;;5057451;28;25058;-69
2022/06/07 13:05:35;;;;;;;10.02;8.98;;;19.90;99.90;;;;;;5037618;28;25048;-68
2022/06/07 13:08:12;;;;;;;13.60;8.93;;;19.60;99.90;;;;;;5043057;28;25063;-67
2022/06/07 13:10:38;;;;;;;12.05;8.77;;;19.50;99.90;;;;;;5043959;28;25088;-68
2022/06/07 13:13:06;;;;;;;10.05;7.70;;;19.50;99.90;;;;;;5049320;28;25143;-70
2022/06/07 13:15:50;;;;;;;10.93;7.38;;;19.80;99.90;;;;;;5050595;28;25074;-68